Search for airport 
image banner adimage banner adimage banner ad
image banner ad

KMIW - Marshalltown Muni

Located in Marshalltown, United States

ICAO - MIW, IATA -

Data provided by Airmate  

General information

Coordinates: N42°6'46" W92°55'4"
Elevation is 975 feet MSL.
Magnetic variation is 01° East
View others Airports in Iowa

Operational data

Special qualification required
Current time UTC:
Current local time:
Weather
METAR: KMIW 181753Z AUTO 31004KT 10SM CLR 32/12 A2988 RMK AO2 PRESRR SLP107 T03170122 10317 20222 53013
View NOTAMs / SUP AIP / TFR affecting this airport [VIEW]
Communications frequencies: [VIEW]

Runways:

RWY identifierQFULength (ft)Width (ft)SurfaceLDA (ft)
13127°5007100ASPH
31307°5007100ASPH
18184°275950ASPH
36275950ASPH

Airport contact information

Address: Marshalltown United States

Other aviation service providers

Flight schools

Marshalltown Aviation, Inc.

Marshalltown Aviation, Inc.
info@miwairport.com+1(641)752-0012

Satellite view of KMIW